TLPC/SLU METAR and TAF weather

Enter ICAO airport designator
Station Type Date Time Source
TLPC METAR 2022/06/25 23:00 UTC NOAA

TLPC 252300Z 09010KT 9999 SCT026 27/24 Q1015 NOSIG


Station Type Date Time Source
TLPC Decoded METAR 2022/06/25 23:00 UTC NOAA

Vigie, Saint Lucia (TLPC) 14-01N 061-00W 2M
Jun 25, 2022 - 07:00 PM EDT / 2022.06.25 2300 UTC
Wind: from the E (090 degrees) at 12 MPH (10 KT):0
Visibility: greater than 7 mile(s):0
Sky conditions: partly cloudy
Temperature: 80 F (27 C)
Dew Point: 75 F (24 C)
Relative Humidity: 83%
Pressure (altimeter): 29.97 in. Hg (1015 hPa)
ob: TLPC 252300Z 09010KT 9999 SCT026 27/24 Q1015 NOSIG
cycle: 23

Station Type Date Time Source
TLPC TAF 2022/06/25 18:06 UTC NOAA

TAF TAF TLPC 251700Z 2518/2618 10011KT 9999 SCT026
TEMPO 2612/2618 SHRA FEW015CB BKN018 BKN038

Example: see airport list